sensor_id;sensor_type;location;lat;lon;timestamp;temperature;humidity
13892;DHT22;7016;48.172;8.058;2023-02-15T00:01:36;1.30;99.90
13892;DHT22;7016;48.172;8.058;2023-02-15T00:04:03;1.10;99.90
13892;DHT22;7016;48.172;8.058;2023-02-15T00:06:30;1.10;99.90
13892;DHT22;7016;48.172;8.058;2023-02-15T00:08:56;1.30;99.90
13892;DHT22;7016;48.172;8.058;2023-02-15T00:11:22;1.20;99.90
13892;DHT22;7016;48.172;8.058;2023-02-15T00:14:08;1.20;99.90
13892;DHT22;7016;48.172;8.058;2023-02-15T00:16:34;1.30;99.90
13892;DHT22;7016;48.172;8.058;2023-02-15T00:19:00;1.20;99.90
13892;DHT22;7016;48.172;8.058;2023-02-15T00:21:30;1.20;99.90
13892;DHT22;7016;48.172;8.058;2023-02-15T00:23:57;1.10;99.90
13892;DHT22;7016;48.172;8.058;2023-02-15T00:26:24;1.10;99.90
13892;DHT22;7016;48.172;8.058;2023-02-15T00:28:50;1.10;99.90
13892;DHT22;7016;48.172;8.058;2023-02-15T00:31:15;1.10;99.90
13892;DHT22;7016;48.172;8.058;2023-02-15T00:33:41;1.10;99.90
13892;DHT22;7016;48.172;8.058;2023-02-15T00:36:08;1.20;99.90
13892;DHT22;7016;48.172;8.058;2023-02-15T00:38:35;1.10;99.90
13892;DHT22;7016;48.172;8.058;2023-02-15T00:41:03;0.90;99.90
13892;DHT22;7016;48.172;8.058;2023-02-15T00:43:30;1.00;99.90
13892;DHT22;7016;48.172;8.058;2023-02-15T00:45:56;1.20;99.90
13892;DHT22;7016;48.172;8.058;2023-02-15T00:48:23;1.20;99.90
13892;DHT22;7016;48.172;8.058;2023-02-15T00:50:50;1.20;99.90
13892;DHT22;7016;48.172;8.058;2023-02-15T00:53:16;1.10;99.90
13892;DHT22;7016;48.172;8.058;2023-02-15T00:55:42;1.00;99.90
13892;DHT22;7016;48.172;8.058;2023-02-15T00:58:09;1.00;99.90
13892;DHT22;7016;48.172;8.058;2023-02-15T01:00:35;1.00;99.90
13892;DHT22;7016;48.172;8.058;2023-02-15T01:03:01;0.90;99.90
13892;DHT22;7016;48.172;8.058;2023-02-15T01:05:27;0.90;99.90
13892;DHT22;7016;48.172;8.058;2023-02-15T01:07:55;0.90;99.90
13892;DHT22;7016;48.172;8.058;2023-02-15T01:10:21;0.90;99.90
13892;DHT22;7016;48.172;8.058;2023-02-15T01:12:47;1.00;99.90
13892;DHT22;7016;48.172;8.058;2023-02-15T01:15:13;0.90;99.90
13892;DHT22;7016;48.172;8.058;2023-02-15T01:17:38;0.90;99.90
13892;DHT22;7016;48.172;8.058;2023-02-15T01:20:05;1.00;99.90
13892;DHT22;7016;48.172;8.058;2023-02-15T01:22:32;1.00;99.90
13892;DHT22;7016;48.172;8.058;2023-02-15T01:24:57;1.00;99.90
13892;DHT22;7016;48.172;8.058;2023-02-15T01:29:50;1.10;99.90
13892;DHT22;7016;48.172;8.058;2023-02-15T01:32:16;1.10;99.90
13892;DHT22;7016;48.172;8.058;2023-02-15T01:34:42;0.90;99.90
13892;DHT22;7016;48.172;8.058;2023-02-15T01:37:07;0.90;99.90
13892;DHT22;7016;48.172;8.058;2023-02-15T01:39:33;1.00;99.90
13892;DHT22;7016;48.172;8.058;2023-02-15T01:41:59;1.00;99.90
13892;DHT22;7016;48.172;8.058;2023-02-15T01:45:00;1.10;99.90
13892;DHT22;7016;48.172;8.058;2023-02-15T01:47:39;1.10;99.90
13892;DHT22;7016;48.172;8.058;2023-02-15T01:50:17;1.00;99.90
13892;DHT22;7016;48.172;8.058;2023-02-15T01:55:16;1.00;99.90
13892;DHT22;7016;48.172;8.058;2023-02-15T01:57:43;1.00;99.90
13892;DHT22;7016;48.172;8.058;2023-02-15T02:00:11;1.00;99.90
13892;DHT22;7016;48.172;8.058;2023-02-15T02:02:39;1.10;99.90
13892;DHT22;7016;48.172;8.058;2023-02-15T02:05:06;0.90;99.90
13892;DHT22;7016;48.172;8.058;2023-02-15T02:07:36;0.90;99.90
13892;DHT22;7016;48.172;8.058;2023-02-15T02:10:06;1.00;99.90
13892;DHT22;7016;48.172;8.058;2023-02-15T02:12:33;0.90;99.90
13892;DHT22;7016;48.172;8.058;2023-02-15T02:15:00;0.90;99.90
13892;DHT22;7016;48.172;8.058;2023-02-15T02:32:18;0.70;99.90
13892;DHT22;7016;48.172;8.058;2023-02-15T02:36:55;0.80;99.90
13892;DHT22;7016;48.172;8.058;2023-02-15T02:45:16;1.00;99.90
13892;DHT22;7016;48.172;8.058;2023-02-15T02:47:56;0.90;99.90
13892;DHT22;7016;48.172;8.058;2023-02-15T02:50:28;0.90;99.90
13892;DHT22;7016;48.172;8.058;2023-02-15T02:52:56;0.80;99.90
13892;DHT22;7016;48.172;8.058;2023-02-15T02:55:35;0.70;99.90
13892;DHT22;7016;48.172;8.058;2023-02-15T03:00:36;0.60;99.90
13892;DHT22;7016;48.172;8.058;2023-02-15T03:05:47;0.80;99.90
13892;DHT22;7016;48.172;8.058;2023-02-15T03:08:17;0.80;99.90
13892;DHT22;7016;48.172;8.058;2023-02-15T03:10:48;0.70;99.90
13892;DHT22;7016;48.172;8.058;2023-02-15T03:13:16;0.70;99.90
13892;DHT22;7016;48.172;8.058;2023-02-15T03:15:43;0.80;99.90
13892;DHT22;7016;48.172;8.058;2023-02-15T03:18:36;0.80;99.90
13892;DHT22;7016;48.172;8.058;2023-02-15T03:21:04;0.60;99.90
13892;DHT22;7016;48.172;8.058;2023-02-15T03:23:32;0.50;99.90
13892;DHT22;7016;48.172;8.058;2023-02-15T03:26:04;0.50;99.90
13892;DHT22;7016;48.172;8.058;2023-02-15T03:28:35;0.60;99.90
13892;DHT22;7016;48.172;8.058;2023-02-15T03:31:04;0.60;99.90
13892;DHT22;7016;48.172;8.058;2023-02-15T03:33:31;0.60;99.90
13892;DHT22;7016;48.172;8.058;2023-02-15T03:36:06;0.50;99.90
13892;DHT22;7016;48.172;8.058;2023-02-15T03:38:49;0.50;99.90
13892;DHT22;7016;48.172;8.058;2023-02-15T03:41:18;0.50;99.90
13892;DHT22;7016;48.172;8.058;2023-02-15T03:44:06;0.40;99.90
13892;DHT22;7016;48.172;8.058;2023-02-15T03:46:52;0.50;99.90
13892;DHT22;7016;48.172;8.058;2023-02-15T03:49:40;0.50;99.90
13892;DHT22;7016;48.172;8.058;2023-02-15T03:52:08;0.50;99.90
13892;DHT22;7016;48.172;8.058;2023-02-15T03:54:36;0.50;99.90
13892;DHT22;7016;48.172;8.058;2023-02-15T03:57:24;0.60;99.90
13892;DHT22;7016;48.172;8.058;2023-02-15T04:05:42;0.50;99.90
13892;DHT22;7016;48.172;8.058;2023-02-15T04:08:09;0.50;99.90
13892;DHT22;7016;48.172;8.058;2023-02-15T04:10:35;0.40;99.90
13892;DHT22;7016;48.172;8.058;2023-02-15T04:13:30;0.50;99.90
13892;DHT22;7016;48.172;8.058;2023-02-15T04:15:57;0.50;99.90
13892;DHT22;7016;48.172;8.058;2023-02-15T04:18:40;0.50;99.90
13892;DHT22;7016;48.172;8.058;2023-02-15T04:21:26;0.40;99.90
13892;DHT22;7016;48.172;8.058;2023-02-15T04:24:12;0.40;99.90
13892;DHT22;7016;48.172;8.058;2023-02-15T04:26:56;0.30;99.90
13892;DHT22;7016;48.172;8.058;2023-02-15T04:29:23;0.40;99.90
13892;DHT22;7016;48.172;8.058;2023-02-15T04:32:08;0.50;99.90
13892;DHT22;7016;48.172;8.058;2023-02-15T04:34:33;0.50;99.90
13892;DHT22;7016;48.172;8.058;2023-02-15T04:36:59;0.40;99.90
13892;DHT22;7016;48.172;8.058;2023-02-15T04:39:25;0.40;99.90
13892;DHT22;7016;48.172;8.058;2023-02-15T04:41:51;0.20;99.90
13892;DHT22;7016;48.172;8.058;2023-02-15T04:44:17;0.20;99.90
13892;DHT22;7016;48.172;8.058;2023-02-15T04:46:43;0.30;99.90
13892;DHT22;7016;48.172;8.058;2023-02-15T04:49:09;0.20;99.90
13892;DHT22;7016;48.172;8.058;2023-02-15T04:51:35;0.20;99.90
13892;DHT22;7016;48.172;8.058;2023-02-15T04:54:00;0.20;99.90
13892;DHT22;7016;48.172;8.058;2023-02-15T04:56:26;0.20;99.90
13892;DHT22;7016;48.172;8.058;2023-02-15T04:58:52;0.40;99.90
13892;DHT22;7016;48.172;8.058;2023-02-15T05:01:17;0.30;99.90
13892;DHT22;7016;48.172;8.058;2023-02-15T05:03:52;0.20;99.90
13892;DHT22;7016;48.172;8.058;2023-02-15T05:06:30;0.30;99.90
13892;DHT22;7016;48.172;8.058;2023-02-15T05:08:56;0.30;99.90
13892;DHT22;7016;48.172;8.058;2023-02-15T05:11:24;0.20;99.90
13892;DHT22;7016;48.172;8.058;2023-02-15T05:14:07;0.30;99.90
13892;DHT22;7016;48.172;8.058;2023-02-15T05:16:46;0.30;99.90
13892;DHT22;7016;48.172;8.058;2023-02-15T05:19:11;0.20;99.90
13892;DHT22;7016;48.172;8.058;2023-02-15T05:21:37;0.20;99.90
13892;DHT22;7016;48.172;8.058;2023-02-15T05:24:21;0.40;99.90
13892;DHT22;7016;48.172;8.058;2023-02-15T05:27:05;0.20;99.90
13892;DHT22;7016;48.172;8.058;2023-02-15T05:29:50;0.10;99.90
13892;DHT22;7016;48.172;8.058;2023-02-15T05:32:16;0.00;99.90
13892;DHT22;7016;48.172;8.058;2023-02-15T05:34:41;0.10;99.90
13892;DHT22;7016;48.172;8.058;2023-02-15T05:37:07;0.20;99.90
13892;DHT22;7016;48.172;8.058;2023-02-15T05:39:33;0.20;99.90
13892;DHT22;7016;48.172;8.058;2023-02-15T05:42:00;0.20;99.90
13892;DHT22;7016;48.172;8.058;2023-02-15T05:44:26;0.40;99.90
13892;DHT22;7016;48.172;8.058;2023-02-15T05:46:51;0.40;99.90
13892;DHT22;7016;48.172;8.058;2023-02-15T05:49:17;0.30;99.90
13892;DHT22;7016;48.172;8.058;2023-02-15T05:51:43;0.30;99.90
13892;DHT22;7016;48.172;8.058;2023-02-15T05:54:09;0.10;99.90
13892;DHT22;7016;48.172;8.058;2023-02-15T05:56:35;0.10;99.90
13892;DHT22;7016;48.172;8.058;2023-02-15T05:59:02;0.10;99.90
13892;DHT22;7016;48.172;8.058;2023-02-15T06:01:28;0.00;99.90
13892;DHT22;7016;48.172;8.058;2023-02-15T06:03:53;0.00;99.90
13892;DHT22;7016;48.172;8.058;2023-02-15T06:06:21;0.10;99.90
13892;DHT22;7016;48.172;8.058;2023-02-15T06:08:48;0.10;99.90
13892;DHT22;7016;48.172;8.058;2023-02-15T06:11:13;0.20;99.90
13892;DHT22;7016;48.172;8.058;2023-02-15T06:13:39;0.00;99.90
13892;DHT22;7016;48.172;8.058;2023-02-15T06:16:06;-0.20;99.90
13892;DHT22;7016;48.172;8.058;2023-02-15T06:18:31;-0.20;99.90
13892;DHT22;7016;48.172;8.058;2023-02-15T06:20:57;-0.10;99.90
13892;DHT22;7016;48.172;8.058;2023-02-15T06:23:23;-0.10;99.90
13892;DHT22;7016;48.172;8.058;2023-02-15T06:25:50;-0.10;99.90
13892;DHT22;7016;48.172;8.058;2023-02-15T06:28:15;-0.10;99.90
13892;DHT22;7016;48.172;8.058;2023-02-15T06:30:41;-0.10;99.90
13892;DHT22;7016;48.172;8.058;2023-02-15T06:33:07;0.00;99.90
13892;DHT22;7016;48.172;8.058;2023-02-15T06:35:32;0.10;99.90
13892;DHT22;7016;48.172;8.058;2023-02-15T06:37:58;0.20;99.90
13892;DHT22;7016;48.172;8.058;2023-02-15T06:40:24;0.20;99.90
13892;DHT22;7016;48.172;8.058;2023-02-15T06:42:49;0.10;99.90
13892;DHT22;7016;48.172;8.058;2023-02-15T06:45:15;0.00;99.90
13892;DHT22;7016;48.172;8.058;2023-02-15T06:47:41;0.10;99.90
13892;DHT22;7016;48.172;8.058;2023-02-15T06:50:07;0.00;99.90
13892;DHT22;7016;48.172;8.058;2023-02-15T06:52:33;0.00;99.90
13892;DHT22;7016;48.172;8.058;2023-02-15T06:54:59;-0.10;99.90
13892;DHT22;7016;48.172;8.058;2023-02-15T06:57:25;0.00;99.90
13892;DHT22;7016;48.172;8.058;2023-02-15T06:59:50;0.00;99.90
13892;DHT22;7016;48.172;8.058;2023-02-15T07:02:17;-0.10;99.90
13892;DHT22;7016;48.172;8.058;2023-02-15T07:04:43;0.00;99.90
13892;DHT22;7016;48.172;8.058;2023-02-15T07:07:09;0.00;99.90
13892;DHT22;7016;48.172;8.058;2023-02-15T07:09:36;0.00;99.90
13892;DHT22;7016;48.172;8.058;2023-02-15T07:12:02;0.10;99.90
13892;DHT22;7016;48.172;8.058;2023-02-15T07:14:46;0.20;99.90
13892;DHT22;7016;48.172;8.058;2023-02-15T07:17:12;0.20;99.90
13892;DHT22;7016;48.172;8.058;2023-02-15T07:19:37;0.20;99.90
13892;DHT22;7016;48.172;8.058;2023-02-15T07:22:03;0.20;99.90
13892;DHT22;7016;48.172;8.058;2023-02-15T07:24:30;0.20;99.90
13892;DHT22;7016;48.172;8.058;2023-02-15T07:26:56;0.20;99.90
13892;DHT22;7016;48.172;8.058;2023-02-15T07:29:23;0.30;99.90
13892;DHT22;7016;48.172;8.058;2023-02-15T07:31:49;0.30;99.90
13892;DHT22;7016;48.172;8.058;2023-02-15T07:34:15;0.40;99.90
13892;DHT22;7016;48.172;8.058;2023-02-15T07:36:41;0.40;99.90
13892;DHT22;7016;48.172;8.058;2023-02-15T07:39:09;0.40;99.90
13892;DHT22;7016;48.172;8.058;2023-02-15T07:41:35;0.40;99.90
13892;DHT22;7016;48.172;8.058;2023-02-15T07:44:00;0.30;99.90
13892;DHT22;7016;48.172;8.058;2023-02-15T07:46:26;0.30;99.90
13892;DHT22;7016;48.172;8.058;2023-02-15T07:48:53;0.40;99.90
13892;DHT22;7016;48.172;8.058;2023-02-15T07:51:19;0.60;99.90
13892;DHT22;7016;48.172;8.058;2023-02-15T07:53:44;0.60;99.90
13892;DHT22;7016;48.172;8.058;2023-02-15T07:56:12;0.50;99.90
13892;DHT22;7016;48.172;8.058;2023-02-15T07:58:38;0.40;99.90
13892;DHT22;7016;48.172;8.058;2023-02-15T08:01:38;0.40;99.90
13892;DHT22;7016;48.172;8.058;2023-02-15T08:04:04;0.40;99.90
13892;DHT22;7016;48.172;8.058;2023-02-15T08:06:34;0.40;99.90
13892;DHT22;7016;48.172;8.058;2023-02-15T08:09:05;0.60;99.90
13892;DHT22;7016;48.172;8.058;2023-02-15T08:11:33;0.70;99.90
13892;DHT22;7016;48.172;8.058;2023-02-15T08:14:16;0.80;99.90
13892;DHT22;7016;48.172;8.058;2023-02-15T08:16:48;0.70;99.90
13892;DHT22;7016;48.172;8.058;2023-02-15T08:19:18;0.70;99.90
13892;DHT22;7016;48.172;8.058;2023-02-15T08:21:47;0.80;99.90
13892;DHT22;7016;48.172;8.058;2023-02-15T08:24:15;0.90;99.90
13892;DHT22;7016;48.172;8.058;2023-02-15T08:26:41;0.90;99.90
13892;DHT22;7016;48.172;8.058;2023-02-15T08:29:10;1.10;99.90
13892;DHT22;7016;48.172;8.058;2023-02-15T08:31:36;1.20;99.90
13892;DHT22;7016;48.172;8.058;2023-02-15T08:34:03;1.20;99.90
13892;DHT22;7016;48.172;8.058;2023-02-15T08:36:30;1.30;99.90
13892;DHT22;7016;48.172;8.058;2023-02-15T08:38:59;1.40;99.90
13892;DHT22;7016;48.172;8.058;2023-02-15T08:41:27;1.50;99.90
13892;DHT22;7016;48.172;8.058;2023-02-15T08:43:57;1.50;99.90
13892;DHT22;7016;48.172;8.058;2023-02-15T08:46:24;1.70;99.90
13892;DHT22;7016;48.172;8.058;2023-02-15T08:48:50;1.80;99.90
13892;DHT22;7016;48.172;8.058;2023-02-15T08:51:23;1.90;99.90
13892;DHT22;7016;48.172;8.058;2023-02-15T08:53:51;1.90;99.90
13892;DHT22;7016;48.172;8.058;2023-02-15T08:56:19;2.10;99.90
13892;DHT22;7016;48.172;8.058;2023-02-15T08:58:45;2.10;99.90
13892;DHT22;7016;48.172;8.058;2023-02-15T09:01:13;2.20;99.90
13892;DHT22;7016;48.172;8.058;2023-02-15T09:03:39;2.20;99.90
13892;DHT22;7016;48.172;8.058;2023-02-15T09:06:06;2.40;99.90
13892;DHT22;7016;48.172;8.058;2023-02-15T09:08:32;2.50;99.90
13892;DHT22;7016;48.172;8.058;2023-02-15T09:11:09;2.60;99.90
13892;DHT22;7016;48.172;8.058;2023-02-15T09:13:35;2.70;99.90
13892;DHT22;7016;48.172;8.058;2023-02-15T09:16:03;2.80;99.90
13892;DHT22;7016;48.172;8.058;2023-02-15T09:18:31;2.90;99.90
13892;DHT22;7016;48.172;8.058;2023-02-15T09:21:03;3.00;99.90
13892;DHT22;7016;48.172;8.058;2023-02-15T09:23:28;3.00;99.90
13892;DHT22;7016;48.172;8.058;2023-02-15T09:25:54;3.10;99.90
13892;DHT22;7016;48.172;8.058;2023-02-15T09:28:20;3.10;99.90
13892;DHT22;7016;48.172;8.058;2023-02-15T09:30:45;3.20;99.90
13892;DHT22;7016;48.172;8.058;2023-02-15T09:33:11;3.30;99.90
13892;DHT22;7016;48.172;8.058;2023-02-15T09:35:37;3.40;99.90
13892;DHT22;7016;48.172;8.058;2023-02-15T09:38:02;3.40;99.90
13892;DHT22;7016;48.172;8.058;2023-02-15T09:40:35;3.50;99.90
13892;DHT22;7016;48.172;8.058;2023-02-15T09:43:17;3.60;99.90
13892;DHT22;7016;48.172;8.058;2023-02-15T09:46:08;3.80;99.90
13892;DHT22;7016;48.172;8.058;2023-02-15T09:48:42;3.80;99.90
13892;DHT22;7016;48.172;8.058;2023-02-15T09:51:52;3.90;99.90
13892;DHT22;7016;48.172;8.058;2023-02-15T09:55:04;4.10;99.90
13892;DHT22;7016;48.172;8.058;2023-02-15T09:57:46;4.10;99.90
13892;DHT22;7016;48.172;8.058;2023-02-15T10:00:24;4.20;99.90
13892;DHT22;7016;48.172;8.058;2023-02-15T10:03:37;4.30;99.90
13892;DHT22;7016;48.172;8.058;2023-02-15T10:25:59;5.30;99.90
13892;DHT22;7016;48.172;8.058;2023-02-15T10:28:49;5.40;99.90
13892;DHT22;7016;48.172;8.058;2023-02-15T10:31:25;5.50;99.90
13892;DHT22;7016;48.172;8.058;2023-02-15T10:34:12;5.60;99.90
13892;DHT22;7016;48.172;8.058;2023-02-15T10:37:05;5.90;99.90
13892;DHT22;7016;48.172;8.058;2023-02-15T10:45:20;6.80;99.90
13892;DHT22;7016;48.172;8.058;2023-02-15T10:51:26;6.90;99.90
13892;DHT22;7016;48.172;8.058;2023-02-15T11:00:09;6.80;99.90
13892;DHT22;7016;48.172;8.058;2023-02-15T11:05:45;6.70;99.90
13892;DHT22;7016;48.172;8.058;2023-02-15T11:08:14;6.70;99.90
13892;DHT22;7016;48.172;8.058;2023-02-15T11:10:54;6.70;99.90
13892;DHT22;7016;48.172;8.058;2023-02-15T11:13:23;6.70;99.90
13892;DHT22;7016;48.172;8.058;2023-02-15T11:18:30;6.80;99.90
13892;DHT22;7016;48.172;8.058;2023-02-15T11:23:40;6.90;99.90
13892;DHT22;7016;48.172;8.058;2023-02-15T11:26:14;6.90;99.90
13892;DHT22;7016;48.172;8.058;2023-02-15T11:31:23;7.00;99.90
13892;DHT22;7016;48.172;8.058;2023-02-15T11:33:59;7.10;99.90
13892;DHT22;7016;48.172;8.058;2023-02-15T11:36:28;7.10;99.90
13892;DHT22;7016;48.172;8.058;2023-02-15T11:39:04;7.20;99.90
13892;DHT22;7016;48.172;8.058;2023-02-15T11:41:38;7.10;99.90
13892;DHT22;7016;48.172;8.058;2023-02-15T11:44:42;7.40;99.90
13892;DHT22;7016;48.172;8.058;2023-02-15T11:47:11;7.40;99.90
13892;DHT22;7016;48.172;8.058;2023-02-15T11:49:38;7.50;99.90
13892;DHT22;7016;48.172;8.058;2023-02-15T11:52:12;7.60;99.90
13892;DHT22;7016;48.172;8.058;2023-02-15T11:54:43;7.80;99.90
13892;DHT22;7016;48.172;8.058;2023-02-15T11:57:31;7.70;99.90
13892;DHT22;7016;48.172;8.058;2023-02-15T12:02:53;7.90;99.90
13892;DHT22;7016;48.172;8.058;2023-02-15T12:05:24;8.10;99.90
13892;DHT22;7016;48.172;8.058;2023-02-15T12:08:00;8.10;99.90
13892;DHT22;7016;48.172;8.058;2023-02-15T12:10:33;8.20;99.90
13892;DHT22;7016;48.172;8.058;2023-02-15T12:13:10;8.50;99.90
13892;DHT22;7016;48.172;8.058;2023-02-15T12:15:38;8.60;99.90
13892;DHT22;7016;48.172;8.058;2023-02-15T12:21:05;8.70;99.90
13892;DHT22;7016;48.172;8.058;2023-02-15T12:23:32;8.60;99.90
13892;DHT22;7016;48.172;8.058;2023-02-15T12:25:58;8.70;99.90
13892;DHT22;7016;48.172;8.058;2023-02-15T12:28:41;8.70;99.90
13892;DHT22;7016;48.172;8.058;2023-02-15T12:34:00;8.80;99.90
13892;DHT22;7016;48.172;8.058;2023-02-15T12:36:44;8.90;99.90
13892;DHT22;7016;48.172;8.058;2023-02-15T12:39:19;9.00;99.90
13892;DHT22;7016;48.172;8.058;2023-02-15T12:42:41;9.00;99.90
13892;DHT22;7016;48.172;8.058;2023-02-15T12:44:35;9.20;99.90
13892;DHT22;7016;48.172;8.058;2023-02-15T12:49:41;9.30;99.90
13892;DHT22;7016;48.172;8.058;2023-02-15T12:54:46;9.50;99.90
13892;DHT22;7016;48.172;8.058;2023-02-15T12:57:32;9.50;99.90
13892;DHT22;7016;48.172;8.058;2023-02-15T13:00:12;9.60;99.90
13892;DHT22;7016;48.172;8.058;2023-02-15T13:02:51;9.80;99.90
13892;DHT22;7016;48.172;8.058;2023-02-15T13:05:39;9.90;99.90
13892;DHT22;7016;48.172;8.058;2023-02-15T13:10:54;10.10;99.90
13892;DHT22;7016;48.172;8.058;2023-02-15T13:13:22;10.10;99.90
13892;DHT22;7016;48.172;8.058;2023-02-15T13:15:55;10.20;99.90
13892;DHT22;7016;48.172;8.058;2023-02-15T13:18:36;10.20;99.90
13892;DHT22;7016;48.172;8.058;2023-02-15T13:21:31;10.30;99.90
13892;DHT22;7016;48.172;8.058;2023-02-15T13:24:00;10.40;99.90
13892;DHT22;7016;48.172;8.058;2023-02-15T13:26:30;10.40;99.90
13892;DHT22;7016;48.172;8.058;2023-02-15T13:28:59;10.50;99.90
13892;DHT22;7016;48.172;8.058;2023-02-15T13:31:28;10.50;99.90
13892;DHT22;7016;48.172;8.058;2023-02-15T13:34:28;10.50;99.90
13892;DHT22;7016;48.172;8.058;2023-02-15T13:37:20;10.50;99.90
13892;DHT22;7016;48.172;8.058;2023-02-15T13:39:48;10.50;99.90
13892;DHT22;7016;48.172;8.058;2023-02-15T13:42:56;10.60;99.90
13892;DHT22;7016;48.172;8.058;2023-02-15T13:45:39;10.60;99.90
13892;DHT22;7016;48.172;8.058;2023-02-15T13:48:15;10.60;99.90
13892;DHT22;7016;48.172;8.058;2023-02-15T13:59:14;10.60;99.90
13892;DHT22;7016;48.172;8.058;2023-02-15T14:04:53;10.60;99.90
13892;DHT22;7016;48.172;8.058;2023-02-15T14:15:44;10.40;99.90
13892;DHT22;7016;48.172;8.058;2023-02-15T14:23:51;10.40;99.90
13892;DHT22;7016;48.172;8.058;2023-02-15T14:26:40;10.30;99.90
13892;DHT22;7016;48.172;8.058;2023-02-15T14:31:56;10.40;99.90
13892;DHT22;7016;48.172;8.058;2023-02-15T14:34:44;10.30;99.90
13892;DHT22;7016;48.172;8.058;2023-02-15T14:37:14;10.30;99.90
13892;DHT22;7016;48.172;8.058;2023-02-15T14:40:02;10.30;99.90
13892;DHT22;7016;48.172;8.058;2023-02-15T14:43:05;10.30;99.90
13892;DHT22;7016;48.172;8.058;2023-02-15T14:45:54;10.40;99.90
13892;DHT22;7016;48.172;8.058;2023-02-15T14:48:54;10.40;99.90
13892;DHT22;7016;48.172;8.058;2023-02-15T15:04:38;10.50;99.90
13892;DHT22;7016;48.172;8.058;2023-02-15T15:07:21;10.50;99.90
13892;DHT22;7016;48.172;8.058;2023-02-15T15:12:55;10.40;99.90
13892;DHT22;7016;48.172;8.058;2023-02-15T15:20:47;10.40;99.90
13892;DHT22;7016;48.172;8.058;2023-02-15T15:25:47;10.30;99.90
13892;DHT22;7016;48.172;8.058;2023-02-15T15:34:14;10.20;99.90
13892;DHT22;7016;48.172;8.058;2023-02-15T15:39:37;10.20;99.90
13892;DHT22;7016;48.172;8.058;2023-02-15T15:42:31;10.20;99.90
13892;DHT22;7016;48.172;8.058;2023-02-15T15:50:28;10.00;99.90
13892;DHT22;7016;48.172;8.058;2023-02-15T15:52:57;9.90;99.90
13892;DHT22;7016;48.172;8.058;2023-02-15T15:55:26;9.90;99.90
13892;DHT22;7016;48.172;8.058;2023-02-15T15:57:55;9.90;99.90
13892;DHT22;7016;48.172;8.058;2023-02-15T16:00:41;9.80;99.90
13892;DHT22;7016;48.172;8.058;2023-02-15T16:03:26;9.80;99.90
13892;DHT22;7016;48.172;8.058;2023-02-15T16:05:54;9.60;99.90
13892;DHT22;7016;48.172;8.058;2023-02-15T16:08:38;9.70;99.90
13892;DHT22;7016;48.172;8.058;2023-02-15T16:11:15;9.60;99.90
13892;DHT22;7016;48.172;8.058;2023-02-15T16:13:43;9.50;99.90
13892;DHT22;7016;48.172;8.058;2023-02-15T16:16:12;9.50;99.90
13892;DHT22;7016;48.172;8.058;2023-02-15T16:18:39;9.50;99.90
13892;DHT22;7016;48.172;8.058;2023-02-15T16:21:16;9.40;99.90
13892;DHT22;7016;48.172;8.058;2023-02-15T16:23:59;9.30;99.90
13892;DHT22;7016;48.172;8.058;2023-02-15T16:29:19;9.20;99.90
13892;DHT22;7016;48.172;8.058;2023-02-15T16:34:24;8.90;99.90
13892;DHT22;7016;48.172;8.058;2023-02-15T16:37:15;8.70;99.90
13892;DHT22;7016;48.172;8.058;2023-02-15T16:39:42;8.60;99.90
13892;DHT22;7016;48.172;8.058;2023-02-15T16:42:09;8.50;99.90
13892;DHT22;7016;48.172;8.058;2023-02-15T16:44:36;8.40;99.90
13892;DHT22;7016;48.172;8.058;2023-02-15T16:47:02;8.40;99.90
13892;DHT22;7016;48.172;8.058;2023-02-15T16:49:28;8.40;99.90
13892;DHT22;7016;48.172;8.058;2023-02-15T16:52:03;8.30;99.90
13892;DHT22;7016;48.172;8.058;2023-02-15T16:54:34;8.10;99.90
13892;DHT22;7016;48.172;8.058;2023-02-15T16:57:01;8.10;99.90
13892;DHT22;7016;48.172;8.058;2023-02-15T16:59:58;8.00;99.90
13892;DHT22;7016;48.172;8.058;2023-02-15T17:02:31;7.80;99.90
13892;DHT22;7016;48.172;8.058;2023-02-15T17:07:33;7.60;99.90
13892;DHT22;7016;48.172;8.058;2023-02-15T17:09:59;7.50;99.90
13892;DHT22;7016;48.172;8.058;2023-02-15T17:12:45;7.50;99.90
13892;DHT22;7016;48.172;8.058;2023-02-15T17:18:11;7.50;99.90
13892;DHT22;7016;48.172;8.058;2023-02-15T17:20:39;7.40;99.90
13892;DHT22;7016;48.172;8.058;2023-02-15T17:23:31;7.30;99.90
13892;DHT22;7016;48.172;8.058;2023-02-15T17:25:58;7.20;99.90
13892;DHT22;7016;48.172;8.058;2023-02-15T17:28:28;7.20;99.90
13892;DHT22;7016;48.172;8.058;2023-02-15T17:30:56;7.20;99.90
13892;DHT22;7016;48.172;8.058;2023-02-15T17:33:23;7.00;99.90
13892;DHT22;7016;48.172;8.058;2023-02-15T17:36:14;7.00;99.90
13892;DHT22;7016;48.172;8.058;2023-02-15T17:41:30;7.00;99.90
13892;DHT22;7016;48.172;8.058;2023-02-15T17:43:57;6.90;99.90
13892;DHT22;7016;48.172;8.058;2023-02-15T17:46:23;6.80;99.90
13892;DHT22;7016;48.172;8.058;2023-02-15T17:48:52;6.90;99.90
13892;DHT22;7016;48.172;8.058;2023-02-15T17:51:20;6.90;99.90
13892;DHT22;7016;48.172;8.058;2023-02-15T17:53:46;6.80;99.90
13892;DHT22;7016;48.172;8.058;2023-02-15T17:56:33;6.90;99.90
13892;DHT22;7016;48.172;8.058;2023-02-15T17:58:59;6.90;99.90
13892;DHT22;7016;48.172;8.058;2023-02-15T18:01:25;6.80;99.90
13892;DHT22;7016;48.172;8.058;2023-02-15T18:04:14;6.80;99.90
13892;DHT22;7016;48.172;8.058;2023-02-15T18:06:59;6.70;99.90
13892;DHT22;7016;48.172;8.058;2023-02-15T18:09:43;6.60;99.90
13892;DHT22;7016;48.172;8.058;2023-02-15T18:12:29;6.50;99.90
13892;DHT22;7016;48.172;8.058;2023-02-15T18:14:57;6.30;99.90
13892;DHT22;7016;48.172;8.058;2023-02-15T18:17:33;6.20;99.90
13892;DHT22;7016;48.172;8.058;2023-02-15T18:20:03;6.20;99.90
13892;DHT22;7016;48.172;8.058;2023-02-15T18:22:31;6.10;99.90
13892;DHT22;7016;48.172;8.058;2023-02-15T18:24:57;6.30;99.90
13892;DHT22;7016;48.172;8.058;2023-02-15T18:27:23;6.30;99.90
13892;DHT22;7016;48.172;8.058;2023-02-15T18:29:49;6.20;99.90
13892;DHT22;7016;48.172;8.058;2023-02-15T18:32:18;6.10;99.90
13892;DHT22;7016;48.172;8.058;2023-02-15T18:34:46;5.90;99.90
13892;DHT22;7016;48.172;8.058;2023-02-15T18:37:17;5.90;99.90
13892;DHT22;7016;48.172;8.058;2023-02-15T18:39:44;5.70;99.90
13892;DHT22;7016;48.172;8.058;2023-02-15T18:42:30;5.70;99.90
13892;DHT22;7016;48.172;8.058;2023-02-15T18:45:00;5.70;99.90
13892;DHT22;7016;48.172;8.058;2023-02-15T18:47:27;5.70;99.90
13892;DHT22;7016;48.172;8.058;2023-02-15T18:49:53;5.60;99.90
13892;DHT22;7016;48.172;8.058;2023-02-15T18:54:50;5.60;99.90
13892;DHT22;7016;48.172;8.058;2023-02-15T18:57:17;5.60;99.90
13892;DHT22;7016;48.172;8.058;2023-02-15T18:59:43;5.60;99.90
13892;DHT22;7016;48.172;8.058;2023-02-15T19:02:17;5.60;99.90
13892;DHT22;7016;48.172;8.058;2023-02-15T19:04:43;5.50;99.90
13892;DHT22;7016;48.172;8.058;2023-02-15T19:07:25;5.40;99.90
13892;DHT22;7016;48.172;8.058;2023-02-15T19:09:55;5.40;99.90
13892;DHT22;7016;48.172;8.058;2023-02-15T19:12:21;5.50;99.90
13892;DHT22;7016;48.172;8.058;2023-02-15T19:14:47;5.50;99.90
13892;DHT22;7016;48.172;8.058;2023-02-15T19:17:18;5.50;99.90
13892;DHT22;7016;48.172;8.058;2023-02-15T19:19:45;5.40;99.90
13892;DHT22;7016;48.172;8.058;2023-02-15T19:22:16;5.40;99.90
13892;DHT22;7016;48.172;8.058;2023-02-15T19:24:45;5.30;99.90
13892;DHT22;7016;48.172;8.058;2023-02-15T19:27:35;5.30;99.90
13892;DHT22;7016;48.172;8.058;2023-02-15T19:30:06;5.20;99.90
13892;DHT22;7016;48.172;8.058;2023-02-15T19:32:35;5.20;99.90
13892;DHT22;7016;48.172;8.058;2023-02-15T19:35:01;5.00;99.90